Dallas, Iowa
Current Conditions -  °F | °C
As of 7:55 AM on Monday 24 Nov 2014 (Local Time) from KOXV Reporting Station
Overcast Overcast  
Wind Chill: 15°   Ceiling: 1800
Heat Index: 28°   Visibility: 10mi
Dew Point: 21°   Wind: 21mph
Humidity: 74%   Direction: 300°WNW
Pressure: 29.48"   Gusts: 32mph
Location:  41.23°N, 93.24°W
Report Text: KOXV 241355Z AUTO 30018G28KT 10SM OVC018 M02/M06 A2948 RMK AO2
Loading
Personal Weather Stations






























Interactive Weather Map New forecast layout! Learn more

10-Day Weather Forecast

Advertisements
Track Severe Weather on mobile